Salt Lake City, Utah
Traffic Map
Current Weather Conditions
Salt Lake City, Utah
Broken Clouds
Broken Clouds
18°
Feels Like: 18°
Wind Chill: 18° Ceiling: 11000
Heat Index: 18° Visibility: 10mi
Dew Point: Wind: 13mph
Humidity: 41% Direction: 130° (SE)
Pressure: 29.9in Gusts: 0mph
Raw Report DataKSLC 210753Z 13011KT 10SM FEW090 BKN110 18/04 A2990 RMK AO2 SLP076 T01780044
Traffic Incident Summary
Active as of:
Severity:
Category:
InformationThere was an issue retrieving the traffic information for this location. Please try a different location or try again shortly.
Advertisements
Track Severe Weather on mobile